sensor_id;sensor_type;location;lat;lon;timestamp;P1;durP1;ratioP1;P2;durP2;ratioP2
70457;SDS011;57919;56.194;95.716;2022-11-15T00:09:32;90.97;;;31.97;;
70457;SDS011;57919;56.194;95.716;2022-11-15T00:19:53;31.25;;;13.35;;
70457;SDS011;57919;56.194;95.716;2022-11-15T00:30:13;22.70;;;11.30;;
70457;SDS011;57919;56.194;95.716;2022-11-15T00:40:37;39.10;;;16.27;;
70457;SDS011;57919;56.194;95.716;2022-11-15T00:50:58;70.53;;;31.98;;
70457;SDS011;57919;56.194;95.716;2022-11-15T01:01:18;59.47;;;24.47;;
70457;SDS011;57919;56.194;95.716;2022-11-15T01:11:40;60.60;;;25.70;;
70457;SDS011;57919;56.194;95.716;2022-11-15T01:22:00;28.80;;;13.18;;
70457;SDS011;57919;56.194;95.716;2022-11-15T01:32:20;12.70;;;3.97;;
70457;SDS011;57919;56.194;95.716;2022-11-15T01:42:40;18.50;;;5.70;;
70457;SDS011;57919;56.194;95.716;2022-11-15T01:53:01;33.20;;;12.07;;
70457;SDS011;57919;56.194;95.716;2022-11-15T02:03:22;17.67;;;7.63;;
70457;SDS011;57919;56.194;95.716;2022-11-15T02:13:51;20.30;;;8.90;;
70457;SDS011;57919;56.194;95.716;2022-11-15T02:24:48;25.73;;;10.02;;
70457;SDS011;57919;56.194;95.716;2022-11-15T02:36:02;47.33;;;15.97;;
70457;SDS011;57919;56.194;95.716;2022-11-15T02:57:56;45.80;;;18.23;;
70457;SDS011;57919;56.194;95.716;2022-11-15T03:08:40;41.93;;;17.37;;
70457;SDS011;57919;56.194;95.716;2022-11-15T03:19:17;53.67;;;23.37;;
70457;SDS011;57919;56.194;95.716;2022-11-15T03:29:58;50.90;;;22.50;;
70457;SDS011;57919;56.194;95.716;2022-11-15T03:40:22;63.23;;;31.47;;
70457;SDS011;57919;56.194;95.716;2022-11-15T03:50:49;125.20;;;47.23;;
70457;SDS011;57919;56.194;95.716;2022-11-15T04:01:09;96.60;;;38.92;;
70457;SDS011;57919;56.194;95.716;2022-11-15T04:11:30;41.00;;;17.07;;
70457;SDS011;57919;56.194;95.716;2022-11-15T04:21:50;38.00;;;14.63;;
70457;SDS011;57919;56.194;95.716;2022-11-15T04:32:29;22.63;;;9.38;;
70457;SDS011;57919;56.194;95.716;2022-11-15T04:42:50;19.23;;;7.80;;
70457;SDS011;57919;56.194;95.716;2022-11-15T04:53:11;8.57;;;4.23;;
70457;SDS011;57919;56.194;95.716;2022-11-15T05:03:31;13.27;;;4.85;;
70457;SDS011;57919;56.194;95.716;2022-11-15T05:14:10;13.93;;;5.07;;
70457;SDS011;57919;56.194;95.716;2022-11-15T05:24:31;14.30;;;5.93;;
70457;SDS011;57919;56.194;95.716;2022-11-15T05:34:51;8.68;;;2.95;;
70457;SDS011;57919;56.194;95.716;2022-11-15T05:45:12;8.87;;;2.83;;
70457;SDS011;57919;56.194;95.716;2022-11-15T05:55:33;15.67;;;5.60;;
70457;SDS011;57919;56.194;95.716;2022-11-15T06:05:53;11.30;;;4.30;;
70457;SDS011;57919;56.194;95.716;2022-11-15T06:16:14;29.53;;;12.23;;
70457;SDS011;57919;56.194;95.716;2022-11-15T06:26:35;16.00;;;5.95;;
70457;SDS011;57919;56.194;95.716;2022-11-15T06:36:55;20.77;;;7.73;;
70457;SDS011;57919;56.194;95.716;2022-11-15T06:47:16;22.13;;;6.23;;
70457;SDS011;57919;56.194;95.716;2022-11-15T06:57:36;21.58;;;8.27;;
70457;SDS011;57919;56.194;95.716;2022-11-15T07:07:57;35.17;;;13.90;;
70457;SDS011;57919;56.194;95.716;2022-11-15T07:18:18;27.77;;;9.90;;
70457;SDS011;57919;56.194;95.716;2022-11-15T07:28:38;16.23;;;6.13;;
70457;SDS011;57919;56.194;95.716;2022-11-15T07:38:59;51.47;;;15.93;;
70457;SDS011;57919;56.194;95.716;2022-11-15T07:49:20;28.23;;;9.35;;
70457;SDS011;57919;56.194;95.716;2022-11-15T07:59:40;33.40;;;11.87;;
70457;SDS011;57919;56.194;95.716;2022-11-15T08:10:01;23.10;;;8.37;;
70457;SDS011;57919;56.194;95.716;2022-11-15T08:20:23;26.98;;;10.38;;
70457;SDS011;57919;56.194;95.716;2022-11-15T08:30:44;22.70;;;6.43;;
70457;SDS011;57919;56.194;95.716;2022-11-15T08:41:04;22.07;;;5.67;;
70457;SDS011;57919;56.194;95.716;2022-11-15T08:51:25;24.98;;;8.15;;
70457;SDS011;57919;56.194;95.716;2022-11-15T09:01:48;30.40;;;11.67;;
70457;SDS011;57919;56.194;95.716;2022-11-15T09:12:08;19.43;;;7.13;;
70457;SDS011;57919;56.194;95.716;2022-11-15T09:22:30;36.75;;;17.42;;
70457;SDS011;57919;56.194;95.716;2022-11-15T09:32:51;40.07;;;19.20;;
70457;SDS011;57919;56.194;95.716;2022-11-15T10:04:16;47.70;;;17.53;;
70457;SDS011;57919;56.194;95.716;2022-11-15T10:14:20;45.07;;;15.80;;
70457;SDS011;57919;56.194;95.716;2022-11-15T10:24:25;84.88;;;30.90;;
70457;SDS011;57919;56.194;95.716;2022-11-15T10:34:34;66.87;;;22.63;;
70457;SDS011;57919;56.194;95.716;2022-11-15T10:44:41;148.27;;;51.47;;
70457;SDS011;57919;56.194;95.716;2022-11-15T11:15:30;44.37;;;16.23;;
70457;SDS011;57919;56.194;95.716;2022-11-15T11:25:48;44.75;;;20.85;;
70457;SDS011;57919;56.194;95.716;2022-11-15T11:35:58;41.43;;;18.70;;
70457;SDS011;57919;56.194;95.716;2022-11-15T11:56:22;20.83;;;9.30;;
70457;SDS011;57919;56.194;95.716;2022-11-15T12:06:36;44.87;;;16.17;;
70457;SDS011;57919;56.194;95.716;2022-11-15T12:16:44;57.27;;;25.80;;
70457;SDS011;57919;56.194;95.716;2022-11-15T12:26:48;79.97;;;33.17;;
70457;SDS011;57919;56.194;95.716;2022-11-15T12:36:58;25.27;;;8.90;;
70457;SDS011;57919;56.194;95.716;2022-11-15T12:47:02;44.33;;;20.30;;
70457;SDS011;57919;56.194;95.716;2022-11-15T13:27:53;23.83;;;4.45;;
70457;SDS011;57919;56.194;95.716;2022-11-15T13:38:03;27.80;;;10.20;;
70457;SDS011;57919;56.194;95.716;2022-11-15T13:48:07;15.50;;;6.77;;
70457;SDS011;57919;56.194;95.716;2022-11-15T13:58:10;11.25;;;3.35;;
70457;SDS011;57919;56.194;95.716;2022-11-15T14:08:24;56.33;;;25.70;;
70457;SDS011;57919;56.194;95.716;2022-11-15T14:18:40;28.60;;;12.47;;
70457;SDS011;57919;56.194;95.716;2022-11-15T14:28:50;24.05;;;9.07;;
70457;SDS011;57919;56.194;95.716;2022-11-15T14:38:52;45.23;;;17.50;;
70457;SDS011;57919;56.194;95.716;2022-11-15T14:48:55;57.73;;;25.90;;
70457;SDS011;57919;56.194;95.716;2022-11-15T14:58:57;28.00;;;10.27;;
70457;SDS011;57919;56.194;95.716;2022-11-15T15:08:59;39.03;;;21.30;;
70457;SDS011;57919;56.194;95.716;2022-11-15T15:19:01;6.03;;;2.40;;
70457;SDS011;57919;56.194;95.716;2022-11-15T15:29:03;24.95;;;9.00;;
70457;SDS011;57919;56.194;95.716;2022-11-15T15:39:07;28.00;;;12.47;;
70457;SDS011;57919;56.194;95.716;2022-11-15T15:49:12;29.80;;;10.37;;
70457;SDS011;57919;56.194;95.716;2022-11-15T15:59:14;218.75;;;59.47;;
70457;SDS011;57919;56.194;95.716;2022-11-15T16:09:17;312.43;;;81.33;;
70457;SDS011;57919;56.194;95.716;2022-11-15T16:19:40;125.30;;;34.23;;
70457;SDS011;57919;56.194;95.716;2022-11-15T16:29:42;81.65;;;24.25;;
70457;SDS011;57919;56.194;95.716;2022-11-15T16:39:44;156.53;;;44.97;;
70457;SDS011;57919;56.194;95.716;2022-11-15T16:49:46;29.67;;;9.57;;
70457;SDS011;57919;56.194;95.716;2022-11-15T16:59:48;21.47;;;6.87;;
70457;SDS011;57919;56.194;95.716;2022-11-15T17:09:50;23.02;;;8.88;;
70457;SDS011;57919;56.194;95.716;2022-11-15T17:19:52;15.13;;;5.67;;
70457;SDS011;57919;56.194;95.716;2022-11-15T17:29:54;20.67;;;8.07;;
70457;SDS011;57919;56.194;95.716;2022-11-15T17:39:56;15.90;;;5.18;;
70457;SDS011;57919;56.194;95.716;2022-11-15T17:49:58;9.30;;;2.60;;
70457;SDS011;57919;56.194;95.716;2022-11-15T17:59:59;7.00;;;2.20;;
70457;SDS011;57919;56.194;95.716;2022-11-15T18:10:02;5.63;;;1.65;;
70457;SDS011;57919;56.194;95.716;2022-11-15T18:20:05;5.07;;;1.20;;
70457;SDS011;57919;56.194;95.716;2022-11-15T18:30:07;5.50;;;1.80;;
70457;SDS011;57919;56.194;95.716;2022-11-15T18:40:12;6.15;;;2.20;;
70457;SDS011;57919;56.194;95.716;2022-11-15T18:50:17;14.20;;;1.30;;
70457;SDS011;57919;56.194;95.716;2022-11-15T19:00:18;5.60;;;0.80;;
70457;SDS011;57919;56.194;95.716;2022-11-15T19:10:20;2.93;;;0.73;;
70457;SDS011;57919;56.194;95.716;2022-11-15T19:20:22;3.08;;;0.65;;
70457;SDS011;57919;56.194;95.716;2022-11-15T19:30:24;4.77;;;0.70;;
70457;SDS011;57919;56.194;95.716;2022-11-15T19:40:26;10.33;;;1.10;;
70457;SDS011;57919;56.194;95.716;2022-11-15T19:50:28;3.13;;;0.90;;
70457;SDS011;57919;56.194;95.716;2022-11-15T20:00:30;3.30;;;0.77;;
70457;SDS011;57919;56.194;95.716;2022-11-15T20:10:32;4.93;;;1.17;;
70457;SDS011;57919;56.194;95.716;2022-11-15T20:20:35;6.25;;;1.10;;
70457;SDS011;57919;56.194;95.716;2022-11-15T20:30:37;3.67;;;0.80;;
70457;SDS011;57919;56.194;95.716;2022-11-15T20:40:39;4.23;;;0.73;;
70457;SDS011;57919;56.194;95.716;2022-11-15T20:50:43;8.75;;;1.83;;
70457;SDS011;57919;56.194;95.716;2022-11-15T21:00:46;6.63;;;1.50;;
70457;SDS011;57919;56.194;95.716;2022-11-15T21:10:51;7.47;;;2.03;;
70457;SDS011;57919;56.194;95.716;2022-11-15T21:21:12;5.50;;;1.13;;
70457;SDS011;57919;56.194;95.716;2022-11-15T21:31:15;3.83;;;0.93;;
70457;SDS011;57919;56.194;95.716;2022-11-15T21:41:17;3.43;;;0.80;;
70457;SDS011;57919;56.194;95.716;2022-11-15T21:51:21;6.33;;;1.53;;
70457;SDS011;57919;56.194;95.716;2022-11-15T22:01:24;3.85;;;0.70;;
70457;SDS011;57919;56.194;95.716;2022-11-15T22:11:46;3.50;;;0.83;;
70457;SDS011;57919;56.194;95.716;2022-11-15T22:21:48;6.60;;;1.87;;
70457;SDS011;57919;56.194;95.716;2022-11-15T22:31:50;5.15;;;1.58;;
70457;SDS011;57919;56.194;95.716;2022-11-15T22:41:52;12.10;;;3.63;;
70457;SDS011;57919;56.194;95.716;2022-11-15T22:51:55;5.23;;;1.70;;
70457;SDS011;57919;56.194;95.716;2022-11-15T23:01:57;6.90;;;1.80;;
70457;SDS011;57919;56.194;95.716;2022-11-15T23:11:59;6.88;;;1.88;;
70457;SDS011;57919;56.194;95.716;2022-11-15T23:22:19;7.63;;;2.07;;
70457;SDS011;57919;56.194;95.716;2022-11-15T23:32:40;12.97;;;3.77;;
70457;SDS011;57919;56.194;95.716;2022-11-15T23:43:07;9.27;;;3.20;;
70457;SDS011;57919;56.194;95.716;2022-11-15T23:53:09;6.47;;;1.87;;
